sensor_id;sensor_type;location;lat;lon;timestamp;temperature;humidity
74513;DHT22;62992;52.052;8.550;2023-10-09T00:00:02;12.10;99.90
74513;DHT22;62992;52.052;8.550;2023-10-09T00:03:06;12.10;99.90
74513;DHT22;62992;52.052;8.550;2023-10-09T00:05:50;12.20;99.90
74513;DHT22;62992;52.052;8.550;2023-10-09T00:08:37;12.10;99.90
74513;DHT22;62992;52.052;8.550;2023-10-09T00:11:23;12.10;99.90
74513;DHT22;62992;52.052;8.550;2023-10-09T00:14:13;12.20;99.90
74513;DHT22;62992;52.052;8.550;2023-10-09T00:16:59;12.20;99.90
74513;DHT22;62992;52.052;8.550;2023-10-09T00:20:01;12.20;99.90
74513;DHT22;62992;52.052;8.550;2023-10-09T00:22:53;12.20;99.90
74513;DHT22;62992;52.052;8.550;2023-10-09T00:25:48;12.10;99.90
74513;DHT22;62992;52.052;8.550;2023-10-09T00:28:38;12.10;99.90
74513;DHT22;62992;52.052;8.550;2023-10-09T00:31:27;11.90;99.90
74513;DHT22;62992;52.052;8.550;2023-10-09T00:34:17;11.90;99.90
74513;DHT22;62992;52.052;8.550;2023-10-09T00:37:06;11.80;99.90
74513;DHT22;62992;52.052;8.550;2023-10-09T00:39:54;11.90;99.90
74513;DHT22;62992;52.052;8.550;2023-10-09T00:42:41;11.90;99.90
74513;DHT22;62992;52.052;8.550;2023-10-09T00:45:26;12.00;99.90
74513;DHT22;62992;52.052;8.550;2023-10-09T00:48:16;12.20;99.90
74513;DHT22;62992;52.052;8.550;2023-10-09T00:51:10;12.20;99.90
74513;DHT22;62992;52.052;8.550;2023-10-09T00:54:02;12.20;99.90
74513;DHT22;62992;52.052;8.550;2023-10-09T00:56:51;12.40;99.90
74513;DHT22;62992;52.052;8.550;2023-10-09T00:59:42;12.70;99.90
74513;DHT22;62992;52.052;8.550;2023-10-09T01:02:27;13.00;99.90
74513;DHT22;62992;52.052;8.550;2023-10-09T01:05:25;13.40;99.90
74513;DHT22;62992;52.052;8.550;2023-10-09T01:08:11;13.50;99.90
74513;DHT22;62992;52.052;8.550;2023-10-09T01:11:00;13.50;99.90
74513;DHT22;62992;52.052;8.550;2023-10-09T01:13:53;13.50;99.90
74513;DHT22;62992;52.052;8.550;2023-10-09T01:16:40;13.60;99.90
74513;DHT22;62992;52.052;8.550;2023-10-09T01:19:27;13.60;99.90
74513;DHT22;62992;52.052;8.550;2023-10-09T01:22:11;13.60;99.90
74513;DHT22;62992;52.052;8.550;2023-10-09T01:25:00;13.60;99.90
74513;DHT22;62992;52.052;8.550;2023-10-09T01:27:44;13.60;99.90
74513;DHT22;62992;52.052;8.550;2023-10-09T01:30:28;13.60;99.90
74513;DHT22;62992;52.052;8.550;2023-10-09T01:33:13;13.70;99.90
74513;DHT22;62992;52.052;8.550;2023-10-09T01:36:03;13.80;99.90
74513;DHT22;62992;52.052;8.550;2023-10-09T01:38:47;13.80;99.90
74513;DHT22;62992;52.052;8.550;2023-10-09T01:41:33;13.90;99.90
74513;DHT22;62992;52.052;8.550;2023-10-09T01:44:18;13.90;99.90
74513;DHT22;62992;52.052;8.550;2023-10-09T01:47:06;13.90;99.90
74513;DHT22;62992;52.052;8.550;2023-10-09T01:49:57;13.80;99.90
74513;DHT22;62992;52.052;8.550;2023-10-09T01:52:42;13.90;99.90
74513;DHT22;62992;52.052;8.550;2023-10-09T01:55:26;13.90;99.90
74513;DHT22;62992;52.052;8.550;2023-10-09T01:58:17;13.90;99.90
74513;DHT22;62992;52.052;8.550;2023-10-09T02:01:11;13.90;99.90
74513;DHT22;62992;52.052;8.550;2023-10-09T02:03:56;13.90;99.90
74513;DHT22;62992;52.052;8.550;2023-10-09T02:06:47;13.90;99.90
74513;DHT22;62992;52.052;8.550;2023-10-09T02:09:36;13.90;99.90
74513;DHT22;62992;52.052;8.550;2023-10-09T02:12:28;13.80;99.90
74513;DHT22;62992;52.052;8.550;2023-10-09T02:15:17;13.80;99.90
74513;DHT22;62992;52.052;8.550;2023-10-09T02:18:21;13.80;99.90
74513;DHT22;62992;52.052;8.550;2023-10-09T02:21:06;13.80;99.90
74513;DHT22;62992;52.052;8.550;2023-10-09T02:23:50;13.80;99.90
74513;DHT22;62992;52.052;8.550;2023-10-09T02:26:34;13.70;99.90
74513;DHT22;62992;52.052;8.550;2023-10-09T02:29:36;13.80;99.90
74513;DHT22;62992;52.052;8.550;2023-10-09T02:32:26;13.70;99.90
74513;DHT22;62992;52.052;8.550;2023-10-09T02:35:12;13.80;99.90
74513;DHT22;62992;52.052;8.550;2023-10-09T02:38:15;13.80;99.90
74513;DHT22;62992;52.052;8.550;2023-10-09T02:40:59;13.80;99.90
74513;DHT22;62992;52.052;8.550;2023-10-09T02:43:46;13.80;99.90
74513;DHT22;62992;52.052;8.550;2023-10-09T02:46:31;13.80;99.90
74513;DHT22;62992;52.052;8.550;2023-10-09T02:49:16;13.80;99.90
74513;DHT22;62992;52.052;8.550;2023-10-09T02:52:01;13.80;99.90
74513;DHT22;62992;52.052;8.550;2023-10-09T02:54:51;13.80;99.90
74513;DHT22;62992;52.052;8.550;2023-10-09T02:57:42;13.80;99.90
74513;DHT22;62992;52.052;8.550;2023-10-09T03:00:29;13.80;99.90
74513;DHT22;62992;52.052;8.550;2023-10-09T03:03:15;13.80;99.90
74513;DHT22;62992;52.052;8.550;2023-10-09T03:06:02;13.80;99.90
74513;DHT22;62992;52.052;8.550;2023-10-09T03:08:54;13.70;99.90
74513;DHT22;62992;52.052;8.550;2023-10-09T03:11:39;13.70;99.90
74513;DHT22;62992;52.052;8.550;2023-10-09T03:14:23;13.70;99.90
74513;DHT22;62992;52.052;8.550;2023-10-09T03:17:10;13.70;99.90
74513;DHT22;62992;52.052;8.550;2023-10-09T03:19:57;13.70;99.90
74513;DHT22;62992;52.052;8.550;2023-10-09T03:22:42;13.70;99.90
74513;DHT22;62992;52.052;8.550;2023-10-09T03:25:28;13.70;99.90
74513;DHT22;62992;52.052;8.550;2023-10-09T03:28:13;13.70;99.90
74513;DHT22;62992;52.052;8.550;2023-10-09T03:30:59;13.70;99.90
74513;DHT22;62992;52.052;8.550;2023-10-09T03:33:46;13.70;99.90
74513;DHT22;62992;52.052;8.550;2023-10-09T03:36:31;13.70;99.90
74513;DHT22;62992;52.052;8.550;2023-10-09T03:39:21;13.70;99.90
74513;DHT22;62992;52.052;8.550;2023-10-09T03:42:24;13.70;99.90
74513;DHT22;62992;52.052;8.550;2023-10-09T03:45:08;13.70;99.90
74513;DHT22;62992;52.052;8.550;2023-10-09T03:48:13;13.70;99.90
74513;DHT22;62992;52.052;8.550;2023-10-09T03:51:10;13.70;99.90
74513;DHT22;62992;52.052;8.550;2023-10-09T03:54:05;13.70;99.90
74513;DHT22;62992;52.052;8.550;2023-10-09T03:56:51;13.80;99.90
74513;DHT22;62992;52.052;8.550;2023-10-09T03:59:38;13.70;99.90
74513;DHT22;62992;52.052;8.550;2023-10-09T04:02:22;13.70;99.90
74513;DHT22;62992;52.052;8.550;2023-10-09T04:05:07;13.70;99.90
74513;DHT22;62992;52.052;8.550;2023-10-09T04:07:53;13.70;99.90
74513;DHT22;62992;52.052;8.550;2023-10-09T04:10:38;13.70;99.90
74513;DHT22;62992;52.052;8.550;2023-10-09T04:13:34;13.70;99.90
74513;DHT22;62992;52.052;8.550;2023-10-09T04:16:19;13.70;99.90
74513;DHT22;62992;52.052;8.550;2023-10-09T04:19:18;13.70;99.90
74513;DHT22;62992;52.052;8.550;2023-10-09T04:22:06;13.80;99.90
74513;DHT22;62992;52.052;8.550;2023-10-09T04:24:53;13.90;99.90
74513;DHT22;62992;52.052;8.550;2023-10-09T04:27:37;13.90;99.90
74513;DHT22;62992;52.052;8.550;2023-10-09T04:30:22;13.90;99.90
74513;DHT22;62992;52.052;8.550;2023-10-09T04:33:08;13.90;99.90
74513;DHT22;62992;52.052;8.550;2023-10-09T04:36:03;14.00;99.90
74513;DHT22;62992;52.052;8.550;2023-10-09T04:39:06;13.90;99.90
74513;DHT22;62992;52.052;8.550;2023-10-09T04:42:00;14.00;99.90
74513;DHT22;62992;52.052;8.550;2023-10-09T04:45:06;14.10;99.90
74513;DHT22;62992;52.052;8.550;2023-10-09T04:47:51;14.10;99.90
74513;DHT22;62992;52.052;8.550;2023-10-09T04:50:41;14.10;99.90
74513;DHT22;62992;52.052;8.550;2023-10-09T04:53:51;14.10;99.90
74513;DHT22;62992;52.052;8.550;2023-10-09T04:56:54;14.10;99.90
74513;DHT22;62992;52.052;8.550;2023-10-09T04:59:38;14.20;99.90
74513;DHT22;62992;52.052;8.550;2023-10-09T05:02:31;14.20;99.90
74513;DHT22;62992;52.052;8.550;2023-10-09T05:05:21;14.20;99.90
74513;DHT22;62992;52.052;8.550;2023-10-09T05:08:24;14.20;99.90
74513;DHT22;62992;52.052;8.550;2023-10-09T05:11:12;14.20;99.90
74513;DHT22;62992;52.052;8.550;2023-10-09T05:14:15;14.20;99.90
74513;DHT22;62992;52.052;8.550;2023-10-09T05:16:59;14.20;99.90
74513;DHT22;62992;52.052;8.550;2023-10-09T05:19:48;14.20;99.90
74513;DHT22;62992;52.052;8.550;2023-10-09T05:23:01;14.20;99.90
74513;DHT22;62992;52.052;8.550;2023-10-09T05:26:05;14.20;99.90
74513;DHT22;62992;52.052;8.550;2023-10-09T05:29:09;14.20;99.90
74513;DHT22;62992;52.052;8.550;2023-10-09T05:32:12;14.20;99.90
74513;DHT22;62992;52.052;8.550;2023-10-09T05:34:56;14.20;99.90
74513;DHT22;62992;52.052;8.550;2023-10-09T05:37:43;14.20;99.90
74513;DHT22;62992;52.052;8.550;2023-10-09T05:40:27;14.20;99.90
74513;DHT22;62992;52.052;8.550;2023-10-09T05:43:15;14.20;99.90
74513;DHT22;62992;52.052;8.550;2023-10-09T05:46:18;14.20;99.90
74513;DHT22;62992;52.052;8.550;2023-10-09T05:49:03;14.20;99.90
74513;DHT22;62992;52.052;8.550;2023-10-09T05:51:54;14.30;99.90
74513;DHT22;62992;52.052;8.550;2023-10-09T05:54:58;14.30;99.90
74513;DHT22;62992;52.052;8.550;2023-10-09T05:58:01;14.30;99.90
74513;DHT22;62992;52.052;8.550;2023-10-09T06:01:04;14.30;99.90
74513;DHT22;62992;52.052;8.550;2023-10-09T06:04:07;14.40;99.90
74513;DHT22;62992;52.052;8.550;2023-10-09T06:07:01;14.40;99.90
74513;DHT22;62992;52.052;8.550;2023-10-09T06:09:55;14.50;99.90
74513;DHT22;62992;52.052;8.550;2023-10-09T06:12:40;14.60;99.90
74513;DHT22;62992;52.052;8.550;2023-10-09T06:15:27;14.60;99.90
74513;DHT22;62992;52.052;8.550;2023-10-09T06:18:29;14.70;99.90
74513;DHT22;62992;52.052;8.550;2023-10-09T06:21:18;14.70;99.90
74513;DHT22;62992;52.052;8.550;2023-10-09T06:24:23;14.70;99.90
74513;DHT22;62992;52.052;8.550;2023-10-09T06:27:10;14.70;99.90
74513;DHT22;62992;52.052;8.550;2023-10-09T06:29:54;14.70;99.90
74513;DHT22;62992;52.052;8.550;2023-10-09T06:32:58;14.70;99.90
74513;DHT22;62992;52.052;8.550;2023-10-09T06:35:48;14.70;99.90
74513;DHT22;62992;52.052;8.550;2023-10-09T06:38:38;14.70;99.90
74513;DHT22;62992;52.052;8.550;2023-10-09T06:41:45;14.70;99.90
74513;DHT22;62992;52.052;8.550;2023-10-09T06:44:46;14.60;99.90
74513;DHT22;62992;52.052;8.550;2023-10-09T06:47:37;14.60;99.90
74513;DHT22;62992;52.052;8.550;2023-10-09T06:50:39;14.60;99.90
74513;DHT22;62992;52.052;8.550;2023-10-09T06:53:42;14.60;99.90
74513;DHT22;62992;52.052;8.550;2023-10-09T06:56:38;14.60;99.90
74513;DHT22;62992;52.052;8.550;2023-10-09T06:59:22;14.60;99.90
74513;DHT22;62992;52.052;8.550;2023-10-09T07:02:08;14.60;99.90
74513;DHT22;62992;52.052;8.550;2023-10-09T07:05:09;14.60;99.90
74513;DHT22;62992;52.052;8.550;2023-10-09T07:07:54;14.60;99.90
74513;DHT22;62992;52.052;8.550;2023-10-09T07:10:38;14.60;99.90
74513;DHT22;62992;52.052;8.550;2023-10-09T07:13:23;14.60;99.90
74513;DHT22;62992;52.052;8.550;2023-10-09T07:16:08;14.70;99.90
74513;DHT22;62992;52.052;8.550;2023-10-09T07:19:16;14.60;99.90
74513;DHT22;62992;52.052;8.550;2023-10-09T07:22:29;14.70;99.90
74513;DHT22;62992;52.052;8.550;2023-10-09T07:25:23;14.70;99.90
74513;DHT22;62992;52.052;8.550;2023-10-09T07:28:16;14.70;99.90
74513;DHT22;62992;52.052;8.550;2023-10-09T07:31:17;14.70;99.90
74513;DHT22;62992;52.052;8.550;2023-10-09T07:34:08;14.80;99.90
74513;DHT22;62992;52.052;8.550;2023-10-09T07:37:12;14.80;99.90
74513;DHT22;62992;52.052;8.550;2023-10-09T07:40:03;14.80;99.90
74513;DHT22;62992;52.052;8.550;2023-10-09T07:42:51;14.80;99.90
74513;DHT22;62992;52.052;8.550;2023-10-09T07:45:36;14.90;99.90
74513;DHT22;62992;52.052;8.550;2023-10-09T07:48:21;14.80;99.90
74513;DHT22;62992;52.052;8.550;2023-10-09T07:51:12;14.90;99.90
74513;DHT22;62992;52.052;8.550;2023-10-09T07:53:57;15.00;99.90
74513;DHT22;62992;52.052;8.550;2023-10-09T07:56:50;15.00;99.90
74513;DHT22;62992;52.052;8.550;2023-10-09T07:59:37;14.90;99.90
74513;DHT22;62992;52.052;8.550;2023-10-09T08:02:25;15.00;99.90
74513;DHT22;62992;52.052;8.550;2023-10-09T08:05:15;14.90;99.90
74513;DHT22;62992;52.052;8.550;2023-10-09T08:08:03;15.00;99.90
74513;DHT22;62992;52.052;8.550;2023-10-09T08:11:07;15.00;99.90
74513;DHT22;62992;52.052;8.550;2023-10-09T08:14:17;15.00;99.90
74513;DHT22;62992;52.052;8.550;2023-10-09T08:17:17;15.00;99.90
74513;DHT22;62992;52.052;8.550;2023-10-09T08:20:04;15.00;99.90
74513;DHT22;62992;52.052;8.550;2023-10-09T08:23:01;15.00;99.90
74513;DHT22;62992;52.052;8.550;2023-10-09T08:25:48;15.00;99.90
74513;DHT22;62992;52.052;8.550;2023-10-09T08:28:54;15.10;99.90
74513;DHT22;62992;52.052;8.550;2023-10-09T08:31:59;15.10;99.90
74513;DHT22;62992;52.052;8.550;2023-10-09T08:35:02;15.10;99.90
74513;DHT22;62992;52.052;8.550;2023-10-09T08:37:50;15.10;99.90
74513;DHT22;62992;52.052;8.550;2023-10-09T08:40:36;15.10;99.90
74513;DHT22;62992;52.052;8.550;2023-10-09T08:43:23;15.10;99.90
74513;DHT22;62992;52.052;8.550;2023-10-09T08:46:08;15.10;99.90
74513;DHT22;62992;52.052;8.550;2023-10-09T08:48:54;15.00;99.90
74513;DHT22;62992;52.052;8.550;2023-10-09T08:51:38;15.10;99.90
74513;DHT22;62992;52.052;8.550;2023-10-09T08:54:22;15.10;99.90
74513;DHT22;62992;52.052;8.550;2023-10-09T08:57:07;15.10;99.90
74513;DHT22;62992;52.052;8.550;2023-10-09T08:59:53;15.10;99.90
74513;DHT22;62992;52.052;8.550;2023-10-09T09:02:37;15.10;99.90
74513;DHT22;62992;52.052;8.550;2023-10-09T09:05:22;15.20;99.90
74513;DHT22;62992;52.052;8.550;2023-10-09T09:08:20;15.20;99.90
74513;DHT22;62992;52.052;8.550;2023-10-09T09:11:11;15.30;99.90
74513;DHT22;62992;52.052;8.550;2023-10-09T09:16:50;15.30;99.90
74513;DHT22;62992;52.052;8.550;2023-10-09T09:19:35;15.30;99.90
74513;DHT22;62992;52.052;8.550;2023-10-09T09:22:22;15.30;99.90
74513;DHT22;62992;52.052;8.550;2023-10-09T09:25:07;15.30;99.90
74513;DHT22;62992;52.052;8.550;2023-10-09T09:27:53;15.30;99.90
74513;DHT22;62992;52.052;8.550;2023-10-09T09:30:38;15.30;99.90
74513;DHT22;62992;52.052;8.550;2023-10-09T09:33:25;15.40;99.90
74513;DHT22;62992;52.052;8.550;2023-10-09T09:36:23;15.40;99.90
74513;DHT22;62992;52.052;8.550;2023-10-09T09:39:10;15.40;99.90
74513;DHT22;62992;52.052;8.550;2023-10-09T09:42:03;15.40;99.90
74513;DHT22;62992;52.052;8.550;2023-10-09T09:44:58;15.40;99.90
74513;DHT22;62992;52.052;8.550;2023-10-09T09:47:44;15.30;99.90
74513;DHT22;62992;52.052;8.550;2023-10-09T09:50:35;15.40;99.90
74513;DHT22;62992;52.052;8.550;2023-10-09T09:53:29;15.40;99.90
74513;DHT22;62992;52.052;8.550;2023-10-09T09:56:17;15.50;99.90
74513;DHT22;62992;52.052;8.550;2023-10-09T09:59:05;15.40;99.90
74513;DHT22;62992;52.052;8.550;2023-10-09T10:01:51;15.50;99.90
74513;DHT22;62992;52.052;8.550;2023-10-09T10:04:43;15.40;99.90
74513;DHT22;62992;52.052;8.550;2023-10-09T10:07:28;15.40;99.90
74513;DHT22;62992;52.052;8.550;2023-10-09T10:10:34;15.50;99.90
74513;DHT22;62992;52.052;8.550;2023-10-09T10:13:54;15.40;99.90
74513;DHT22;62992;52.052;8.550;2023-10-09T10:16:22;15.50;99.90
74513;DHT22;62992;52.052;8.550;2023-10-09T10:19:06;15.50;99.90
74513;DHT22;62992;52.052;8.550;2023-10-09T10:21:51;15.50;99.90
74513;DHT22;62992;52.052;8.550;2023-10-09T10:27:38;15.60;99.90
74513;DHT22;62992;52.052;8.550;2023-10-09T10:30:45;15.70;99.90
74513;DHT22;62992;52.052;8.550;2023-10-09T10:36:33;15.80;99.90
74513;DHT22;62992;52.052;8.550;2023-10-09T10:39:18;15.80;99.90
74513;DHT22;62992;52.052;8.550;2023-10-09T10:42:02;15.90;99.90
74513;DHT22;62992;52.052;8.550;2023-10-09T10:44:48;15.90;99.90
74513;DHT22;62992;52.052;8.550;2023-10-09T10:47:37;16.00;99.90
74513;DHT22;62992;52.052;8.550;2023-10-09T10:50:24;16.10;99.90
74513;DHT22;62992;52.052;8.550;2023-10-09T10:53:14;16.00;99.90
74513;DHT22;62992;52.052;8.550;2023-10-09T10:56:00;15.90;99.90
74513;DHT22;62992;52.052;8.550;2023-10-09T10:58:59;15.80;99.90
74513;DHT22;62992;52.052;8.550;2023-10-09T11:01:49;15.70;99.90
74513;DHT22;62992;52.052;8.550;2023-10-09T11:04:37;15.70;99.90
74513;DHT22;62992;52.052;8.550;2023-10-09T11:07:27;15.70;99.90
74513;DHT22;62992;52.052;8.550;2023-10-09T11:10:12;15.70;99.90
74513;DHT22;62992;52.052;8.550;2023-10-09T11:13:10;15.60;99.90
74513;DHT22;62992;52.052;8.550;2023-10-09T11:16:14;15.50;99.90
74513;DHT22;62992;52.052;8.550;2023-10-09T11:18:58;15.40;99.90
74513;DHT22;62992;52.052;8.550;2023-10-09T11:21:54;15.40;99.90
74513;DHT22;62992;52.052;8.550;2023-10-09T11:24:51;15.40;99.90
74513;DHT22;62992;52.052;8.550;2023-10-09T11:27:55;15.40;99.90
74513;DHT22;62992;52.052;8.550;2023-10-09T11:30:39;15.40;99.90
74513;DHT22;62992;52.052;8.550;2023-10-09T11:33:24;15.40;99.90
74513;DHT22;62992;52.052;8.550;2023-10-09T11:36:13;15.40;99.90
74513;DHT22;62992;52.052;8.550;2023-10-09T11:38:58;15.40;99.90
74513;DHT22;62992;52.052;8.550;2023-10-09T11:42:07;15.40;99.90
74513;DHT22;62992;52.052;8.550;2023-10-09T11:44:51;15.50;99.90
74513;DHT22;62992;52.052;8.550;2023-10-09T11:47:39;15.60;99.90
74513;DHT22;62992;52.052;8.550;2023-10-09T11:50:39;15.60;99.90
74513;DHT22;62992;52.052;8.550;2023-10-09T11:53:49;15.70;99.90
74513;DHT22;62992;52.052;8.550;2023-10-09T11:56:33;15.60;99.90
74513;DHT22;62992;52.052;8.550;2023-10-09T11:59:17;15.60;99.90
74513;DHT22;62992;52.052;8.550;2023-10-09T12:02:02;15.60;99.90
74513;DHT22;62992;52.052;8.550;2023-10-09T12:04:47;15.60;99.90
74513;DHT22;62992;52.052;8.550;2023-10-09T12:07:32;15.60;99.90
74513;DHT22;62992;52.052;8.550;2023-10-09T12:10:16;15.70;99.90
74513;DHT22;62992;52.052;8.550;2023-10-09T12:13:08;15.80;99.90
74513;DHT22;62992;52.052;8.550;2023-10-09T12:15:53;16.00;99.90
74513;DHT22;62992;52.052;8.550;2023-10-09T12:18:37;16.10;99.90
74513;DHT22;62992;52.052;8.550;2023-10-09T12:21:23;16.10;99.90
74513;DHT22;62992;52.052;8.550;2023-10-09T12:24:07;16.20;99.90
74513;DHT22;62992;52.052;8.550;2023-10-09T12:26:55;16.20;99.90
74513;DHT22;62992;52.052;8.550;2023-10-09T12:29:39;16.10;99.90
74513;DHT22;62992;52.052;8.550;2023-10-09T12:32:28;16.10;99.90
74513;DHT22;62992;52.052;8.550;2023-10-09T12:35:12;16.10;99.90
74513;DHT22;62992;52.052;8.550;2023-10-09T12:38:01;16.10;99.90
74513;DHT22;62992;52.052;8.550;2023-10-09T12:40:45;16.00;99.90
74513;DHT22;62992;52.052;8.550;2023-10-09T12:43:35;16.10;99.90
74513;DHT22;62992;52.052;8.550;2023-10-09T12:46:23;16.20;99.90
74513;DHT22;62992;52.052;8.550;2023-10-09T12:49:07;16.30;99.90
74513;DHT22;62992;52.052;8.550;2023-10-09T12:51:51;16.20;99.90
74513;DHT22;62992;52.052;8.550;2023-10-09T12:54:36;16.20;99.90
74513;DHT22;62992;52.052;8.550;2023-10-09T12:57:20;16.20;99.90
74513;DHT22;62992;52.052;8.550;2023-10-09T13:00:04;16.20;99.90
74513;DHT22;62992;52.052;8.550;2023-10-09T13:02:54;16.30;99.90
74513;DHT22;62992;52.052;8.550;2023-10-09T13:05:38;16.20;99.90
74513;DHT22;62992;52.052;8.550;2023-10-09T13:08:34;16.20;99.90
74513;DHT22;62992;52.052;8.550;2023-10-09T13:11:24;16.20;99.90
74513;DHT22;62992;52.052;8.550;2023-10-09T13:14:09;16.10;99.90
74513;DHT22;62992;52.052;8.550;2023-10-09T13:17:05;16.10;99.90
74513;DHT22;62992;52.052;8.550;2023-10-09T13:19:53;16.10;99.90
74513;DHT22;62992;52.052;8.550;2023-10-09T13:22:38;16.10;99.90
74513;DHT22;62992;52.052;8.550;2023-10-09T13:25:23;16.10;99.90
74513;DHT22;62992;52.052;8.550;2023-10-09T13:28:10;16.10;99.90
74513;DHT22;62992;52.052;8.550;2023-10-09T13:30:54;16.10;99.90
74513;DHT22;62992;52.052;8.550;2023-10-09T13:33:39;16.10;99.90
74513;DHT22;62992;52.052;8.550;2023-10-09T13:36:25;16.10;99.90
74513;DHT22;62992;52.052;8.550;2023-10-09T13:39:16;16.10;99.90
74513;DHT22;62992;52.052;8.550;2023-10-09T13:42:06;16.10;99.90
74513;DHT22;62992;52.052;8.550;2023-10-09T13:44:54;16.10;99.90
74513;DHT22;62992;52.052;8.550;2023-10-09T13:47:38;16.10;99.90
74513;DHT22;62992;52.052;8.550;2023-10-09T13:50:23;16.10;99.90
74513;DHT22;62992;52.052;8.550;2023-10-09T13:53:08;16.10;99.90
74513;DHT22;62992;52.052;8.550;2023-10-09T13:55:55;16.10;99.90
74513;DHT22;62992;52.052;8.550;2023-10-09T13:58:39;16.20;99.90
74513;DHT22;62992;52.052;8.550;2023-10-09T14:01:26;16.20;99.90
74513;DHT22;62992;52.052;8.550;2023-10-09T14:04:11;16.20;99.90
74513;DHT22;62992;52.052;8.550;2023-10-09T14:07:01;16.20;99.90
74513;DHT22;62992;52.052;8.550;2023-10-09T14:09:49;16.20;99.90
74513;DHT22;62992;52.052;8.550;2023-10-09T14:12:39;16.20;99.90
74513;DHT22;62992;52.052;8.550;2023-10-09T14:15:24;16.20;99.90
74513;DHT22;62992;52.052;8.550;2023-10-09T14:18:08;16.20;99.90
74513;DHT22;62992;52.052;8.550;2023-10-09T14:20:55;16.10;99.90
74513;DHT22;62992;52.052;8.550;2023-10-09T14:23:40;16.10;99.90
74513;DHT22;62992;52.052;8.550;2023-10-09T14:26:28;16.10;99.90
74513;DHT22;62992;52.052;8.550;2023-10-09T14:29:13;16.20;99.90
74513;DHT22;62992;52.052;8.550;2023-10-09T14:32:00;16.20;99.90
74513;DHT22;62992;52.052;8.550;2023-10-09T14:34:45;16.30;99.90
74513;DHT22;62992;52.052;8.550;2023-10-09T14:37:35;16.40;99.90
74513;DHT22;62992;52.052;8.550;2023-10-09T14:40:19;16.50;99.90
74513;DHT22;62992;52.052;8.550;2023-10-09T14:43:13;16.60;99.90
74513;DHT22;62992;52.052;8.550;2023-10-09T14:46:03;16.60;99.90
74513;DHT22;62992;52.052;8.550;2023-10-09T14:48:54;16.70;99.90
74513;DHT22;62992;52.052;8.550;2023-10-09T14:51:39;16.70;99.90
74513;DHT22;62992;52.052;8.550;2023-10-09T14:54:23;16.70;99.90
74513;DHT22;62992;52.052;8.550;2023-10-09T14:57:08;16.80;99.90
74513;DHT22;62992;52.052;8.550;2023-10-09T14:59:55;16.80;99.90
74513;DHT22;62992;52.052;8.550;2023-10-09T15:02:40;16.80;99.90
74513;DHT22;62992;52.052;8.550;2023-10-09T15:05:24;16.80;99.90
74513;DHT22;62992;52.052;8.550;2023-10-09T15:08:09;16.70;99.90
74513;DHT22;62992;52.052;8.550;2023-10-09T15:10:57;16.80;99.90
74513;DHT22;62992;52.052;8.550;2023-10-09T15:13:42;16.80;99.90
74513;DHT22;62992;52.052;8.550;2023-10-09T15:16:26;16.90;99.90
74513;DHT22;62992;52.052;8.550;2023-10-09T15:19:14;17.00;99.90
74513;DHT22;62992;52.052;8.550;2023-10-09T15:21:58;17.10;99.90
74513;DHT22;62992;52.052;8.550;2023-10-09T15:24:43;17.20;99.90
74513;DHT22;62992;52.052;8.550;2023-10-09T15:27:27;17.10;99.90
74513;DHT22;62992;52.052;8.550;2023-10-09T15:30:13;17.10;99.90
74513;DHT22;62992;52.052;8.550;2023-10-09T15:32:57;17.00;99.90
74513;DHT22;62992;52.052;8.550;2023-10-09T15:35:44;17.00;99.90
74513;DHT22;62992;52.052;8.550;2023-10-09T15:38:33;17.00;99.90
74513;DHT22;62992;52.052;8.550;2023-10-09T15:41:17;17.00;99.90
74513;DHT22;62992;52.052;8.550;2023-10-09T15:44:05;16.90;99.90
74513;DHT22;62992;52.052;8.550;2023-10-09T15:46:50;16.90;99.90
74513;DHT22;62992;52.052;8.550;2023-10-09T15:49:34;16.80;99.90
74513;DHT22;62992;52.052;8.550;2023-10-09T15:52:25;16.80;99.90
74513;DHT22;62992;52.052;8.550;2023-10-09T15:55:10;16.80;99.90
74513;DHT22;62992;52.052;8.550;2023-10-09T15:57:58;16.70;99.90
74513;DHT22;62992;52.052;8.550;2023-10-09T16:00:43;16.70;99.90
74513;DHT22;62992;52.052;8.550;2023-10-09T16:03:28;16.70;99.90
74513;DHT22;62992;52.052;8.550;2023-10-09T16:06:12;16.80;99.90
74513;DHT22;62992;52.052;8.550;2023-10-09T16:08:56;16.80;99.90
74513;DHT22;62992;52.052;8.550;2023-10-09T16:11:40;16.80;99.90
74513;DHT22;62992;52.052;8.550;2023-10-09T16:14:24;16.70;99.90
74513;DHT22;62992;52.052;8.550;2023-10-09T16:17:09;16.70;99.90
74513;DHT22;62992;52.052;8.550;2023-10-09T16:19:53;16.70;99.90
74513;DHT22;62992;52.052;8.550;2023-10-09T16:22:42;16.70;99.90
74513;DHT22;62992;52.052;8.550;2023-10-09T16:25:29;16.70;99.90
74513;DHT22;62992;52.052;8.550;2023-10-09T16:28:13;16.60;99.90
74513;DHT22;62992;52.052;8.550;2023-10-09T16:30:59;16.60;99.90
74513;DHT22;62992;52.052;8.550;2023-10-09T16:33:44;16.60;99.90
74513;DHT22;62992;52.052;8.550;2023-10-09T16:36:28;16.60;99.90
74513;DHT22;62992;52.052;8.550;2023-10-09T16:39:14;16.60;99.90
74513;DHT22;62992;52.052;8.550;2023-10-09T16:42:07;16.60;99.90
74513;DHT22;62992;52.052;8.550;2023-10-09T16:44:55;16.50;99.90
74513;DHT22;62992;52.052;8.550;2023-10-09T16:47:39;16.60;99.90
74513;DHT22;62992;52.052;8.550;2023-10-09T16:50:24;16.50;99.90
74513;DHT22;62992;52.052;8.550;2023-10-09T16:53:12;16.50;99.90
74513;DHT22;62992;52.052;8.550;2023-10-09T16:55:56;16.50;99.90
74513;DHT22;62992;52.052;8.550;2023-10-09T16:58:41;16.50;99.90
74513;DHT22;62992;52.052;8.550;2023-10-09T17:01:25;16.50;99.90
74513;DHT22;62992;52.052;8.550;2023-10-09T17:04:11;16.50;99.90
74513;DHT22;62992;52.052;8.550;2023-10-09T17:07:01;16.50;99.90
74513;DHT22;62992;52.052;8.550;2023-10-09T17:09:48;16.50;99.90
74513;DHT22;62992;52.052;8.550;2023-10-09T17:12:32;16.40;99.90
74513;DHT22;62992;52.052;8.550;2023-10-09T17:15:17;16.30;99.90
74513;DHT22;62992;52.052;8.550;2023-10-09T17:18:01;16.30;99.90
74513;DHT22;62992;52.052;8.550;2023-10-09T17:20:45;16.20;99.90
74513;DHT22;62992;52.052;8.550;2023-10-09T17:23:32;16.20;99.90
74513;DHT22;62992;52.052;8.550;2023-10-09T17:26:17;16.20;99.90
74513;DHT22;62992;52.052;8.550;2023-10-09T17:29:06;16.10;99.90
74513;DHT22;62992;52.052;8.550;2023-10-09T17:31:53;16.10;99.90
74513;DHT22;62992;52.052;8.550;2023-10-09T17:34:38;16.10;99.90
74513;DHT22;62992;52.052;8.550;2023-10-09T17:37:23;16.10;99.90
74513;DHT22;62992;52.052;8.550;2023-10-09T17:40:08;16.10;99.90
74513;DHT22;62992;52.052;8.550;2023-10-09T17:42:52;16.10;99.90
74513;DHT22;62992;52.052;8.550;2023-10-09T17:45:38;16.10;99.90
74513;DHT22;62992;52.052;8.550;2023-10-09T17:48:25;16.20;99.90
74513;DHT22;62992;52.052;8.550;2023-10-09T17:51:09;16.20;99.90
74513;DHT22;62992;52.052;8.550;2023-10-09T17:53:54;16.20;99.90
74513;DHT22;62992;52.052;8.550;2023-10-09T17:56:38;16.30;99.90